createdAt,value
2019-03-24T00:02:25.927Z,99.90
2019-03-24T00:04:58.102Z,99.90
2019-03-24T00:07:30.553Z,99.90
2019-03-24T00:10:05.519Z,99.90
2019-03-24T00:16:46.879Z,99.90
2019-03-24T00:19:18.303Z,99.90
2019-03-24T00:21:49.623Z,99.90
2019-03-24T00:24:21.095Z,99.90
2019-03-24T00:30:59.724Z,99.90
2019-03-24T00:33:32.555Z,99.90
2019-03-24T00:39:46.296Z,99.90
2019-03-24T00:42:21.469Z,99.90
2019-03-24T00:44:52.731Z,99.90
2019-03-24T00:51:18.810Z,99.90
2019-03-24T00:53:50.083Z,99.90
2019-03-24T00:56:24.131Z,99.90
2019-03-24T01:02:43.300Z,99.90
2019-03-24T01:05:18.180Z,99.90
2019-03-24T01:07:49.372Z,99.90
2019-03-24T01:10:20.537Z,99.90
2019-03-24T01:12:54.397Z,99.90
2019-03-24T01:15:25.676Z,99.90
2019-03-24T01:17:57.479Z,99.90
2019-03-24T01:20:30.267Z,99.90
2019-03-24T01:23:01.594Z,99.90
2019-03-24T01:25:32.816Z,99.90
2019-03-24T01:28:04.038Z,99.90
2019-03-24T01:30:41.022Z,99.90
2019-03-24T01:33:14.929Z,99.90
2019-03-24T01:35:47.388Z,99.90
2019-03-24T01:38:23.414Z,99.90
2019-03-24T01:40:54.661Z,99.90
2019-03-24T01:43:29.200Z,99.90
2019-03-24T01:46:00.461Z,99.90
2019-03-24T01:48:35.414Z,99.90
2019-03-24T01:51:06.789Z,99.90
2019-03-24T01:53:40.445Z,99.90
2019-03-24T01:56:13.172Z,99.90
2019-03-24T01:58:44.492Z,99.90
2019-03-24T02:01:17.752Z,99.90
2019-03-24T02:03:49.707Z,99.90
2019-03-24T02:06:20.884Z,99.90
2019-03-24T02:08:52.425Z,99.90
2019-03-24T02:11:23.851Z,99.90
2019-03-24T02:13:59.022Z,99.90
2019-03-24T02:20:13.636Z,99.90
2019-03-24T02:22:44.862Z,99.90
2019-03-24T02:25:16.281Z,99.90
2019-03-24T02:27:48.144Z,99.90
2019-03-24T02:30:19.629Z,99.90
2019-03-24T02:32:50.969Z,99.90
2019-03-24T02:35:22.586Z,99.90
2019-03-24T02:37:53.979Z,99.90
2019-03-24T02:40:25.787Z,99.90
2019-03-24T02:42:57.434Z,99.90
2019-03-24T02:45:28.978Z,99.90
2019-03-24T02:48:00.302Z,99.90
2019-03-24T02:54:14.670Z,99.90
2019-03-24T02:56:47.148Z,99.90
2019-03-24T02:59:20.253Z,99.90
2019-03-24T03:01:51.521Z,99.90
2019-03-24T03:04:24.922Z,99.90
2019-03-24T03:06:58.111Z,99.90
2019-03-24T03:09:29.566Z,99.90
2019-03-24T03:12:01.181Z,99.90
2019-03-24T03:14:32.903Z,99.90
2019-03-24T03:17:04.242Z,99.90
2019-03-24T03:19:35.691Z,99.90
2019-03-24T03:22:06.978Z,99.90
2019-03-24T03:24:38.384Z,99.90
2019-03-24T03:27:09.607Z,99.90
2019-03-24T03:29:40.887Z,99.90
2019-03-24T03:32:12.150Z,99.90
2019-03-24T03:34:43.471Z,99.90
2019-03-24T03:37:14.690Z,99.90
2019-03-24T03:39:49.368Z,99.90
2019-03-24T03:42:21.709Z,99.90
2019-03-24T03:44:53.225Z,99.90
2019-03-24T03:47:25.438Z,99.90
2019-03-24T03:49:56.659Z,99.90
2019-03-24T03:52:28.059Z,99.90
2019-03-24T03:54:59.476Z,99.90
2019-03-24T03:57:32.455Z,99.90
2019-03-24T04:03:59.577Z,99.90
2019-03-24T04:06:30.900Z,99.90
2019-03-24T04:09:02.210Z,99.90
2019-03-24T04:11:34.014Z,99.90
2019-03-24T04:14:05.562Z,99.90
2019-03-24T04:16:37.162Z,99.90
2019-03-24T04:19:08.543Z,99.90
2019-03-24T04:21:40.475Z,99.90
2019-03-24T04:24:11.829Z,99.90
2019-03-24T04:26:49.119Z,99.90
2019-03-24T04:29:24.102Z,99.90
2019-03-24T04:35:40.529Z,99.90
2019-03-24T04:38:12.281Z,99.90
2019-03-24T04:40:45.921Z,99.90
2019-03-24T04:43:17.213Z,99.90
2019-03-24T04:45:48.651Z,99.90
2019-03-24T04:48:19.962Z,99.90
2019-03-24T04:50:53.894Z,99.90
2019-03-24T04:53:25.445Z,99.90
2019-03-24T04:55:58.281Z,99.90
2019-03-24T04:58:35.589Z,99.90
2019-03-24T05:05:02.181Z,99.90
2019-03-24T05:07:35.704Z,99.90
2019-03-24T05:10:07.225Z,99.90
2019-03-24T05:12:40.536Z,99.90
2019-03-24T05:15:13.532Z,99.90
2019-03-24T05:17:44.539Z,99.90
2019-03-24T05:20:15.555Z,99.90
2019-03-24T05:22:46.972Z,99.90
2019-03-24T05:25:18.091Z,99.90
2019-03-24T05:27:49.169Z,99.90
2019-03-24T05:34:31.900Z,99.90
2019-03-24T05:37:04.667Z,99.90
2019-03-24T05:39:37.215Z,99.90
2019-03-24T05:42:08.268Z,99.90
2019-03-24T05:44:40.668Z,99.90
2019-03-24T05:47:13.304Z,99.90
2019-03-24T05:49:44.653Z,99.90
2019-03-24T05:52:17.324Z,99.90
2019-03-24T05:54:49.365Z,99.90
2019-03-24T05:57:20.400Z,99.90
2019-03-24T05:59:52.687Z,99.90
2019-03-24T06:02:23.791Z,99.90
2019-03-24T06:04:57.022Z,99.90
2019-03-24T06:07:28.056Z,99.90
2019-03-24T06:13:55.256Z,99.90
2019-03-24T06:16:27.713Z,99.90
2019-03-24T06:18:58.952Z,99.90
2019-03-24T06:21:31.810Z,99.90
2019-03-24T06:24:03.276Z,99.90
2019-03-24T06:26:36.337Z,99.90
2019-03-24T06:29:08.844Z,99.90
2019-03-24T06:31:43.438Z,99.90
2019-03-24T06:34:16.189Z,99.90
2019-03-24T06:36:50.249Z,99.90
2019-03-24T06:39:21.545Z,99.90
2019-03-24T06:41:53.869Z,99.90
2019-03-24T06:44:25.084Z,99.90
2019-03-24T06:46:56.197Z,99.90
2019-03-24T06:49:27.774Z,99.90
2019-03-24T06:51:58.996Z,99.90
2019-03-24T06:54:33.288Z,99.90
2019-03-24T06:57:04.471Z,99.90
2019-03-24T06:59:41.388Z,99.90
2019-03-24T07:02:13.623Z,99.90
2019-03-24T07:08:44.210Z,99.90
2019-03-24T07:11:17.154Z,99.90
2019-03-24T07:13:48.401Z,99.90
2019-03-24T07:16:19.511Z,99.90
2019-03-24T07:18:50.676Z,99.90
2019-03-24T07:21:21.908Z,99.90
2019-03-24T07:23:54.823Z,99.90
2019-03-24T07:26:25.997Z,99.90
2019-03-24T07:28:57.173Z,99.90
2019-03-24T07:31:28.759Z,99.90
2019-03-24T07:34:05.714Z,99.90
2019-03-24T07:36:37.102Z,99.90
2019-03-24T07:39:08.691Z,99.90
2019-03-24T07:41:39.921Z,99.90
2019-03-24T07:44:11.143Z,99.90
2019-03-24T07:46:42.463Z,99.90
2019-03-24T07:53:11.051Z,99.90
2019-03-24T07:55:42.052Z,99.90
2019-03-24T07:58:18.142Z,99.90
2019-03-24T08:00:52.718Z,99.90
2019-03-24T08:03:24.058Z,99.90
2019-03-24T08:05:55.230Z,99.90
2019-03-24T08:08:26.794Z,99.90
2019-03-24T08:10:57.832Z,99.90
2019-03-24T08:13:28.924Z,99.90
2019-03-24T08:16:00.080Z,99.90
2019-03-24T08:18:31.245Z,99.90
2019-03-24T08:21:02.336Z,99.90
2019-03-24T08:23:33.594Z,99.90
2019-03-24T08:26:06.047Z,99.90
2019-03-24T08:32:43.259Z,99.90
2019-03-24T08:35:14.585Z,99.90
2019-03-24T08:37:46.003Z,99.90
2019-03-24T08:40:17.151Z,99.90
2019-03-24T08:42:49.954Z,99.50
2019-03-24T08:45:27.706Z,98.10
2019-03-24T08:47:59.150Z,93.40
2019-03-24T08:54:12.152Z,84.40
2019-03-24T08:56:43.254Z,85.90
2019-03-24T08:59:14.290Z,90.90
2019-03-24T09:01:45.372Z,91.50
2019-03-24T09:04:16.937Z,89.50
2019-03-24T09:06:48.075Z,70.10
2019-03-24T09:09:19.218Z,78.90
2019-03-24T09:11:51.204Z,75.70
2019-03-24T09:14:22.219Z,66.60
2019-03-24T09:16:53.256Z,64.80
2019-03-24T09:19:24.264Z,56.50
2019-03-24T09:21:57.173Z,54.60
2019-03-24T09:24:28.469Z,52.70
2019-03-24T09:26:59.607Z,60.50
2019-03-24T09:29:32.753Z,70.60
2019-03-24T09:32:03.812Z,65.60
2019-03-24T09:34:34.875Z,76.10
2019-03-24T09:40:50.557Z,90.70
2019-03-24T09:43:21.606Z,83.60
2019-03-24T09:45:56.310Z,67.20
2019-03-24T09:52:24.099Z,49.30
2019-03-24T09:54:55.392Z,38.70
2019-03-24T09:57:27.868Z,34.20
2019-03-24T10:00:00.130Z,36.20
2019-03-24T10:02:31.623Z,34.10
2019-03-24T10:05:10.731Z,35.60
2019-03-24T10:07:43.670Z,31.00
2019-03-24T10:10:17.129Z,31.60
2019-03-24T10:12:50.707Z,29.30
2019-03-24T10:15:24.894Z,31.20
2019-03-24T10:17:56.124Z,36.20
2019-03-24T10:24:37.214Z,41.30
2019-03-24T10:27:08.465Z,40.10
2019-03-24T10:29:41.496Z,40.00
2019-03-24T10:32:12.591Z,49.30
2019-03-24T10:38:38.344Z,64.30
2019-03-24T10:41:09.513Z,64.90
2019-03-24T10:43:42.322Z,63.00
2019-03-24T10:46:13.365Z,58.90
2019-03-24T10:52:14.266Z,49.00
2019-03-24T10:58:15.798Z,30.70
2019-03-24T11:00:47.032Z,27.40
2019-03-24T11:03:18.114Z,27.60
2019-03-24T11:05:49.340Z,27.80
2019-03-24T11:08:21.064Z,29.40
2019-03-24T11:10:52.096Z,29.70
2019-03-24T11:13:23.586Z,28.50
2019-03-24T11:15:54.638Z,30.30
2019-03-24T11:22:19.895Z,35.40
2019-03-24T11:24:51.127Z,49.10
2019-03-24T11:27:22.229Z,50.00
2019-03-24T11:29:53.309Z,53.10
2019-03-24T11:32:24.327Z,54.80
2019-03-24T11:34:55.370Z,54.20
2019-03-24T11:37:26.489Z,51.30
2019-03-24T11:39:57.497Z,50.30
2019-03-24T11:42:28.634Z,45.70
2019-03-24T11:44:59.735Z,45.20
2019-03-24T11:47:30.886Z,42.70
2019-03-24T11:50:02.201Z,40.40
2019-03-24T11:52:33.522Z,39.30
2019-03-24T11:55:12.380Z,37.90
2019-03-24T11:57:44.379Z,33.50
2019-03-24T12:00:16.984Z,42.80
2019-03-24T12:02:48.056Z,43.80
2019-03-24T12:05:19.184Z,38.30
2019-03-24T12:11:32.383Z,37.70
2019-03-24T12:14:04.333Z,38.50
2019-03-24T12:16:38.858Z,43.00
2019-03-24T12:19:10.094Z,37.60
2019-03-24T12:21:41.380Z,39.00
2019-03-24T12:24:12.762Z,34.40
2019-03-24T12:26:43.910Z,38.70
2019-03-24T12:29:15.152Z,45.90
2019-03-24T12:31:46.243Z,54.50
2019-03-24T12:34:17.668Z,59.90
2019-03-24T12:36:49.675Z,64.40
2019-03-24T12:39:21.503Z,59.50
2019-03-24T12:41:52.693Z,57.80
2019-03-24T12:44:23.762Z,55.20
2019-03-24T12:46:54.849Z,52.10
2019-03-24T12:53:20.640Z,45.20
2019-03-24T12:55:55.496Z,45.10
2019-03-24T12:58:26.648Z,46.30
2019-03-24T13:04:39.758Z,48.30
2019-03-24T13:07:11.723Z,48.50
2019-03-24T13:09:42.896Z,49.40
2019-03-24T13:12:14.003Z,46.70
2019-03-24T13:14:45.175Z,46.20
2019-03-24T13:17:16.678Z,47.40
2019-03-24T13:19:48.345Z,49.20
2019-03-24T13:22:19.575Z,50.00
2019-03-24T13:24:50.794Z,49.80
2019-03-24T13:27:21.854Z,51.30
2019-03-24T13:29:53.561Z,49.50
2019-03-24T13:32:25.042Z,53.50
2019-03-24T13:34:56.095Z,54.90
2019-03-24T13:37:27.313Z,52.70
2019-03-24T13:39:58.458Z,57.10
2019-03-24T13:42:31.147Z,56.80
2019-03-24T13:45:02.494Z,57.50
2019-03-24T13:51:27.604Z,57.50
2019-03-24T13:53:59.138Z,59.40
2019-03-24T13:56:30.325Z,59.40
2019-03-24T13:59:01.650Z,60.60
2019-03-24T14:01:33.167Z,60.80
2019-03-24T14:04:04.518Z,61.70
2019-03-24T14:06:35.639Z,60.70
2019-03-24T14:09:10.571Z,62.70
2019-03-24T14:11:41.821Z,64.80
2019-03-24T14:14:13.253Z,64.10
2019-03-24T14:16:46.954Z,63.70
2019-03-24T14:19:18.264Z,62.20
2019-03-24T14:21:49.525Z,63.80
2019-03-24T14:24:20.784Z,67.60
2019-03-24T14:26:51.975Z,65.50
2019-03-24T14:29:23.144Z,66.00
2019-03-24T14:31:54.424Z,66.10
2019-03-24T14:34:25.935Z,66.70
2019-03-24T14:36:57.412Z,67.50
2019-03-24T14:39:28.630Z,71.60
2019-03-24T14:42:00.156Z,69.20
2019-03-24T14:44:31.294Z,71.90
2019-03-24T14:47:02.461Z,70.60
2019-03-24T14:49:33.726Z,69.60
2019-03-24T14:52:05.293Z,70.20
2019-03-24T14:54:46.942Z,74.80
2019-03-24T14:57:18.314Z,72.60
2019-03-24T14:59:50.063Z,74.80
2019-03-24T15:02:29.188Z,78.00
2019-03-24T15:05:01.018Z,76.10
2019-03-24T15:07:32.279Z,76.50
2019-03-24T15:10:03.632Z,79.30
2019-03-24T15:12:35.373Z,82.30
2019-03-24T15:15:07.527Z,83.00
2019-03-24T15:17:38.715Z,86.30
2019-03-24T15:20:09.883Z,84.10
2019-03-24T15:22:41.252Z,81.30
2019-03-24T15:25:15.786Z,82.70
2019-03-24T15:27:47.025Z,83.30
2019-03-24T15:30:18.484Z,86.80
2019-03-24T15:32:49.874Z,90.40
2019-03-24T15:35:21.435Z,88.00
2019-03-24T15:38:05.749Z,88.40
2019-03-24T15:40:27.835Z,85.10
2019-03-24T15:42:59.226Z,86.10
2019-03-24T15:45:30.433Z,87.50
2019-03-24T15:48:08.286Z,90.40
2019-03-24T15:50:39.737Z,86.80
2019-03-24T15:53:10.853Z,83.90
2019-03-24T15:55:43.910Z,84.50
2019-03-24T15:58:15.318Z,82.60
2019-03-24T16:00:51.450Z,80.60
2019-03-24T16:03:24.566Z,78.80
2019-03-24T16:05:56.496Z,77.90
2019-03-24T16:08:28.613Z,75.40
2019-03-24T16:11:03.025Z,72.60
2019-03-24T16:13:34.507Z,76.40
2019-03-24T16:16:06.113Z,76.50
2019-03-24T16:18:37.372Z,73.90
2019-03-24T16:21:08.709Z,75.10
2019-03-24T16:23:41.017Z,75.40
2019-03-24T16:26:14.137Z,73.40
2019-03-24T16:28:47.253Z,74.90
2019-03-24T16:31:20.344Z,75.50
2019-03-24T16:33:51.652Z,76.20
2019-03-24T16:36:22.910Z,76.30
2019-03-24T16:39:03.126Z,78.50
2019-03-24T16:41:27.919Z,76.10
2019-03-24T16:44:02.929Z,78.00
2019-03-24T16:46:34.419Z,75.60
2019-03-24T16:49:05.831Z,76.90
2019-03-24T16:51:41.677Z,75.90
2019-03-24T16:54:24.093Z,80.10
2019-03-24T16:56:55.687Z,76.50
2019-03-24T16:59:27.800Z,79.90
2019-03-24T17:01:59.054Z,79.50
2019-03-24T17:04:30.541Z,83.40
2019-03-24T17:07:03.030Z,84.60
2019-03-24T17:09:35.151Z,87.60
2019-03-24T17:12:07.431Z,91.00
2019-03-24T17:14:38.752Z,91.00
2019-03-24T17:17:11.505Z,90.80
2019-03-24T17:19:42.854Z,92.60
2019-03-24T17:22:14.553Z,94.50
2019-03-24T17:24:45.721Z,95.90
2019-03-24T17:30:59.417Z,99.90
2019-03-24T17:33:39.256Z,99.90
2019-03-24T17:36:10.189Z,99.90
2019-03-24T17:38:42.073Z,99.90
2019-03-24T17:41:13.569Z,99.90
2019-03-24T17:43:44.782Z,99.90
2019-03-24T17:46:19.395Z,99.90
2019-03-24T17:48:50.764Z,99.90
2019-03-24T17:51:22.303Z,99.90
2019-03-24T17:53:53.204Z,99.90
2019-03-24T17:56:24.240Z,99.90
2019-03-24T17:58:55.248Z,99.90
2019-03-24T18:01:26.212Z,99.90
2019-03-24T18:03:58.469Z,99.90
2019-03-24T18:06:29.644Z,99.90
2019-03-24T18:09:00.643Z,99.90
2019-03-24T18:11:31.989Z,99.90
2019-03-24T18:14:03.025Z,99.90
2019-03-24T18:16:36.922Z,99.90
2019-03-24T18:19:08.289Z,99.90
2019-03-24T18:21:39.214Z,99.90
2019-03-24T18:24:10.260Z,99.90
2019-03-24T18:26:41.259Z,99.90
2019-03-24T18:29:12.241Z,99.90
2019-03-24T18:31:43.696Z,99.90
2019-03-24T18:34:14.861Z,99.90
2019-03-24T18:36:45.963Z,99.90
2019-03-24T18:39:17.359Z,99.90
2019-03-24T18:41:48.630Z,99.90
2019-03-24T18:44:21.105Z,99.90
2019-03-24T18:46:52.022Z,99.90
2019-03-24T18:49:23.239Z,99.90
2019-03-24T18:51:54.178Z,99.90
2019-03-24T18:54:25.080Z,99.90
2019-03-24T18:56:56.290Z,99.90
2019-03-24T18:59:27.225Z,99.90
2019-03-24T19:01:58.186Z,99.90
2019-03-24T19:04:29.123Z,99.90
2019-03-24T19:07:00.108Z,99.90
2019-03-24T19:09:31.069Z,99.90
2019-03-24T19:12:02.070Z,99.90
2019-03-24T19:14:33.055Z,99.90
2019-03-24T19:17:04.267Z,99.90
2019-03-24T19:19:35.534Z,99.90
2019-03-24T19:22:06.893Z,99.90
2019-03-24T19:24:37.842Z,99.90
2019-03-24T19:27:08.933Z,99.90
2019-03-24T19:29:39.945Z,99.90
2019-03-24T19:32:10.883Z,99.90
2019-03-24T19:34:41.803Z,99.90
2019-03-24T19:37:12.953Z,99.90
2019-03-24T19:39:43.918Z,99.90
2019-03-24T19:42:15.669Z,99.90
2019-03-24T19:44:47.730Z,99.90
2019-03-24T19:47:19.513Z,99.90
2019-03-24T19:49:50.526Z,99.90
2019-03-24T19:52:21.631Z,99.90
2019-03-24T19:54:52.807Z,99.90
2019-03-24T19:57:23.838Z,99.90
2019-03-24T19:59:54.851Z,99.90
2019-03-24T20:02:25.834Z,99.90
2019-03-24T20:04:57.114Z,99.90
2019-03-24T20:07:28.422Z,99.90
2019-03-24T20:09:59.419Z,99.90
2019-03-24T20:12:30.443Z,99.90
2019-03-24T20:15:01.359Z,99.90
2019-03-24T20:17:33.450Z,99.90
2019-03-24T20:20:04.617Z,99.90
2019-03-24T20:22:35.545Z,99.90
2019-03-24T20:25:06.902Z,99.90
2019-03-24T20:27:37.833Z,99.90
2019-03-24T20:30:09.765Z,99.90
2019-03-24T20:32:40.688Z,99.90
2019-03-24T20:35:11.874Z,99.90
2019-03-24T20:37:42.785Z,99.90
2019-03-24T20:40:14.081Z,99.90
2019-03-24T20:42:45.004Z,99.90
2019-03-24T20:45:16.085Z,99.90
2019-03-24T20:47:47.024Z,99.90
2019-03-24T20:50:18.335Z,99.90
2019-03-24T20:52:49.595Z,99.90
2019-03-24T20:55:20.502Z,99.90
2019-03-24T20:57:51.702Z,99.90
2019-03-24T21:00:33.047Z,99.90
2019-03-24T21:03:04.679Z,99.90
2019-03-24T21:05:36.913Z,99.90
2019-03-24T21:08:08.034Z,99.90
2019-03-24T21:10:38.959Z,99.90
2019-03-24T21:13:09.925Z,99.90
2019-03-24T21:15:42.129Z,99.90
2019-03-24T21:18:13.090Z,99.90
2019-03-24T21:20:44.236Z,99.90
2019-03-24T21:23:15.389Z,99.90
2019-03-24T21:25:46.342Z,99.90
2019-03-24T21:28:17.292Z,99.90
2019-03-24T21:30:48.381Z,99.90
2019-03-24T21:33:19.283Z,99.90
2019-03-24T21:35:50.257Z,99.90
2019-03-24T21:38:21.275Z,99.90
2019-03-24T21:40:52.503Z,99.90
2019-03-24T21:43:23.542Z,99.90
2019-03-24T21:45:54.492Z,99.90
2019-03-24T21:48:25.396Z,99.90
2019-03-24T21:50:56.317Z,99.90
2019-03-24T21:53:27.562Z,99.90
2019-03-24T21:55:58.524Z,99.90
2019-03-24T21:58:29.512Z,99.90
2019-03-24T22:01:00.526Z,99.90
2019-03-24T22:03:31.590Z,99.90
2019-03-24T22:06:02.587Z,99.90
2019-03-24T22:08:33.538Z,99.90
2019-03-24T22:11:04.522Z,99.90
2019-03-24T22:13:35.791Z,99.90
2019-03-24T22:16:06.841Z,99.90
2019-03-24T22:18:37.861Z,99.90
2019-03-24T22:21:08.813Z,99.90
2019-03-24T22:23:39.953Z,99.90
2019-03-24T22:26:10.902Z,99.90
2019-03-24T22:28:42.198Z,99.90
2019-03-24T22:31:13.109Z,99.90
2019-03-24T22:33:44.057Z,99.90
2019-03-24T22:36:15.078Z,99.90
2019-03-24T22:38:46.065Z,99.90
2019-03-24T22:41:16.962Z,99.90
2019-03-24T22:43:47.889Z,99.90
2019-03-24T22:46:18.852Z,99.90
2019-03-24T22:48:49.808Z,99.90
2019-03-24T22:51:21.733Z,99.90
2019-03-24T22:54:02.793Z,99.90
2019-03-24T22:56:25.467Z,99.90
2019-03-24T22:58:56.392Z,99.90
2019-03-24T23:01:27.784Z,99.90
2019-03-24T23:03:58.849Z,99.90
2019-03-24T23:06:29.862Z,99.90
2019-03-24T23:09:00.775Z,99.90
2019-03-24T23:11:31.913Z,99.90
2019-03-24T23:14:02.855Z,99.90
2019-03-24T23:16:33.793Z,99.90
2019-03-24T23:19:05.002Z,99.90
2019-03-24T23:21:36.110Z,99.90
2019-03-24T23:24:15.314Z,99.90
2019-03-24T23:26:39.716Z,99.90
2019-03-24T23:29:10.664Z,99.90
2019-03-24T23:31:41.590Z,99.90
2019-03-24T23:34:12.546Z,99.90
2019-03-24T23:36:43.546Z,99.90
2019-03-24T23:39:14.515Z,99.90
2019-03-24T23:41:45.708Z,99.90
2019-03-24T23:44:16.669Z,99.90
2019-03-24T23:46:47.607Z,99.90
2019-03-24T23:49:18.900Z,99.90
2019-03-24T23:51:49.878Z,99.90
2019-03-24T23:54:26.924Z,99.90
2019-03-24T23:56:53.502Z,99.90
2019-03-24T23:59:24.453Z,99.90
